createdAt,value
2023-01-11T00:00:56.901Z,99107.25
2023-01-11T00:03:24.859Z,99108.69
2023-01-11T00:05:57.397Z,99117.91
2023-01-11T00:08:25.825Z,99101.84
2023-01-11T00:10:54.224Z,99129.75
2023-01-11T00:13:22.299Z,99124.06
2023-01-11T00:15:50.413Z,99124.69
2023-01-11T00:18:18.387Z,99133.72
2023-01-11T00:20:46.715Z,99121.81
2023-01-11T00:23:15.981Z,99128.22
2023-01-11T00:25:43.844Z,99132.41
2023-01-11T00:28:11.982Z,99138.81
2023-01-11T00:30:40.168Z,99133.50
2023-01-11T00:33:08.170Z,99141.72
2023-01-11T00:35:36.090Z,99143.59
2023-01-11T00:38:04.052Z,99149.28
2023-01-11T00:40:33.349Z,99153.25
2023-01-11T00:43:18.551Z,99149.72
2023-01-11T00:46:03.885Z,99154.41
2023-01-11T00:48:31.833Z,99139.13
2023-01-11T00:50:59.886Z,99139.13
2023-01-11T00:53:27.824Z,99131.75
2023-01-11T00:55:57.125Z,99137.47
2023-01-11T00:58:25.040Z,99157.72
2023-01-11T01:00:53.081Z,99153.66
2023-01-11T01:03:21.082Z,99153.56
2023-01-11T01:05:49.129Z,99146.50
2023-01-11T01:08:17.096Z,99142.97
2023-01-11T01:10:44.999Z,99135.91
2023-01-11T01:13:31.739Z,99151.38
2023-01-11T01:15:59.779Z,99154.81
2023-01-11T01:18:27.819Z,99161.75
2023-01-11T01:20:55.777Z,99165.00
2023-01-11T01:23:23.695Z,99156.47
2023-01-11T01:25:51.707Z,99160.00
2023-01-11T01:28:22.250Z,99156.56
2023-01-11T01:30:53.350Z,99155.00
2023-01-11T01:33:21.355Z,99141.31
2023-01-11T01:35:49.341Z,99158.75
2023-01-11T01:38:17.731Z,99160.19
2023-01-11T01:40:48.051Z,99157.09
2023-01-11T01:43:18.400Z,99157.19
2023-01-11T01:45:50.163Z,99155.63
2023-01-11T01:48:23.226Z,99161.13
2023-01-11T01:50:54.799Z,99158.53
2023-01-11T01:53:28.991Z,99163.34
2023-01-11T01:56:02.675Z,99165.59
2023-01-11T01:58:35.336Z,99155.50
2023-01-11T02:01:18.777Z,99145.25
2023-01-11T02:03:48.081Z,99155.84
2023-01-11T02:06:16.380Z,99166.81
2023-01-11T02:08:48.009Z,99160.63
2023-01-11T02:11:30.950Z,99167.03
2023-01-11T02:14:02.108Z,99165.38
2023-01-11T02:16:31.506Z,99168.91
2023-01-11T02:19:00.851Z,99167.78
2023-01-11T02:21:42.650Z,99168.72
2023-01-11T02:24:44.234Z,99177.75
2023-01-11T02:27:30.115Z,99178.25
2023-01-11T02:30:08.954Z,99178.50
2023-01-11T02:32:49.770Z,99184.28
2023-01-11T02:35:23.357Z,99182.75
2023-01-11T02:38:00.353Z,99187.09
2023-01-11T02:40:38.459Z,99182.31
2023-01-11T02:43:34.356Z,99189.88
2023-01-11T02:46:11.335Z,99188.22
2023-01-11T02:48:48.519Z,99173.28
2023-01-11T02:51:23.323Z,99174.94
2023-01-11T02:53:56.594Z,99185.31
2023-01-11T02:56:28.328Z,99180.03
2023-01-11T02:58:58.794Z,99184.09
2023-01-11T03:01:28.408Z,99188.75
2023-01-11T03:03:57.235Z,99184.09
2023-01-11T03:06:28.456Z,99179.41
2023-01-11T03:09:13.725Z,99189.69
2023-01-11T03:12:22.235Z,99174.94
2023-01-11T03:15:00.510Z,99178.25
2023-01-11T03:17:43.552Z,99182.72
2023-01-11T03:20:21.560Z,99184.09
2023-01-11T03:23:05.017Z,99187.72
2023-01-11T03:25:43.809Z,99186.69
2023-01-11T03:28:18.137Z,99179.50
2023-01-11T03:30:52.180Z,99190.31
2023-01-11T03:33:28.369Z,99187.28
2023-01-11T03:36:02.353Z,99185.41
2023-01-11T03:38:37.685Z,99174.53
2023-01-11T03:41:09.439Z,99170.38
2023-01-11T03:43:41.609Z,99194.28
2023-01-11T03:46:14.843Z,99195.09
2023-01-11T03:48:48.763Z,99198.41
2023-01-11T03:51:22.006Z,99205.19
2023-01-11T03:53:51.697Z,99213.78
2023-01-11T03:56:26.321Z,99220.44
2023-01-11T03:58:54.345Z,99220.75
2023-01-11T04:01:22.787Z,99232.47
2023-01-11T04:03:52.227Z,99232.09
2023-01-11T04:06:21.044Z,99225.09
2023-01-11T04:08:49.169Z,99239.00
2023-01-11T04:11:17.145Z,99259.91
2023-01-11T04:13:45.078Z,99235.69
2023-01-11T04:16:12.998Z,99250.72
2023-01-11T04:18:41.324Z,99267.56
2023-01-11T04:21:10.609Z,99264.22
2023-01-11T04:23:38.627Z,99261.44
2023-01-11T04:26:07.092Z,99263.91
2023-01-11T04:28:36.035Z,99267.34
2023-01-11T04:31:04.088Z,99267.03
2023-01-11T04:33:32.107Z,99265.34
2023-01-11T04:36:00.010Z,99262.72
2023-01-11T04:38:29.287Z,99264.69
2023-01-11T04:41:17.184Z,99268.00
2023-01-11T04:43:44.063Z,99273.34
2023-01-11T04:46:12.062Z,99285.19
2023-01-11T04:48:40.693Z,99288.44
2023-01-11T04:51:09.062Z,99297.34
2023-01-11T04:53:38.910Z,99307.19
2023-01-11T04:56:08.298Z,99291.31
2023-01-11T04:58:38.306Z,99306.84
2023-01-11T05:01:10.408Z,99280.19
2023-01-11T05:03:38.575Z,99296.63
2023-01-11T05:06:07.124Z,99283.84
2023-01-11T05:08:35.430Z,99310.44
2023-01-11T05:11:07.427Z,99309.59
2023-01-11T05:13:45.091Z,99306.31
2023-01-11T05:16:15.770Z,99313.50
2023-01-11T05:18:44.934Z,99303.94
2023-01-11T05:21:14.764Z,99301.38
2023-01-11T05:23:43.616Z,99304.28
2023-01-11T05:26:15.259Z,99312.56
2023-01-11T05:28:43.485Z,99304.91
2023-01-11T05:31:11.562Z,99316.81
2023-01-11T05:33:39.670Z,99319.63
2023-01-11T05:36:10.321Z,99325.06
2023-01-11T05:38:38.253Z,99331.28
2023-01-11T05:41:08.217Z,99311.97
2023-01-11T05:43:58.508Z,99318.47
2023-01-11T05:46:26.254Z,99318.41
2023-01-11T05:48:55.987Z,99316.31
2023-01-11T05:51:24.068Z,99325.88
2023-01-11T05:53:52.972Z,99345.28
2023-01-11T05:56:21.247Z,99349.16
2023-01-11T05:58:51.461Z,99347.63
2023-01-11T06:01:20.590Z,99350.59
2023-01-11T06:03:48.920Z,99342.38
2023-01-11T06:06:18.760Z,99355.97
2023-01-11T06:08:46.748Z,99359.53
2023-01-11T06:11:15.855Z,99362.84
2023-01-11T06:13:44.143Z,99367.19
2023-01-11T06:16:15.500Z,99350.75
2023-01-11T06:18:45.116Z,99339.47
2023-01-11T06:21:14.141Z,99358.25
2023-01-11T06:23:43.828Z,99375.03
2023-01-11T06:26:14.130Z,99371.03
2023-01-11T06:28:42.566Z,99385.34
2023-01-11T06:31:11.072Z,99378.91
2023-01-11T06:33:40.712Z,99382.88
2023-01-11T06:36:10.936Z,99381.06
2023-01-11T06:38:39.523Z,99377.56
2023-01-11T06:41:09.415Z,99385.03
2023-01-11T06:43:38.652Z,99377.25
2023-01-11T06:46:06.984Z,99385.56
2023-01-11T06:48:35.048Z,99391.88
2023-01-11T06:51:04.407Z,99395.59
2023-01-11T06:53:32.390Z,99396.81
2023-01-11T06:56:00.550Z,99400.91
2023-01-11T06:58:28.936Z,99411.91
2023-01-11T07:00:58.209Z,99399.41
2023-01-11T07:03:27.436Z,99394.84
2023-01-11T07:05:57.361Z,99429.13
2023-01-11T07:08:27.370Z,99433.66
2023-01-11T07:10:55.935Z,99434.19
2023-01-11T07:13:24.254Z,99434.59
2023-01-11T07:15:54.298Z,99413.75
2023-01-11T07:18:23.448Z,99422.06
2023-01-11T07:20:52.328Z,99438.84
2023-01-11T07:23:20.468Z,99406.97
2023-01-11T07:25:50.693Z,99439.78
2023-01-11T07:28:18.673Z,99435.53
2023-01-11T07:31:02.648Z,99416.69
2023-01-11T07:33:30.650Z,99443.16
2023-01-11T07:36:00.807Z,99454.69
2023-01-11T07:38:29.742Z,99466.75
2023-01-11T07:40:59.163Z,99439.72
2023-01-11T07:43:26.978Z,99474.50
2023-01-11T07:45:55.149Z,99475.56
2023-01-11T07:48:26.885Z,99484.31
2023-01-11T07:50:55.536Z,99459.56
2023-01-11T07:53:26.012Z,99470.50
2023-01-11T07:55:55.565Z,99487.56
2023-01-11T07:58:24.987Z,99489.16
2023-01-11T08:00:53.046Z,99494.03
2023-01-11T08:03:21.203Z,99397.94
2023-01-11T08:05:51.592Z,99498.91
2023-01-11T08:08:19.735Z,99496.72
2023-01-11T08:11:07.773Z,99492.84
2023-01-11T08:13:54.435Z,99513.78
2023-01-11T08:16:22.578Z,99506.91
2023-01-11T08:18:51.064Z,99504.03
2023-01-11T08:21:21.227Z,99504.91
2023-01-11T08:23:49.391Z,99509.31
2023-01-11T08:26:18.065Z,99502.97
2023-01-11T08:28:47.918Z,99513.94
2023-01-11T08:31:15.966Z,99518.69
2023-01-11T08:33:46.168Z,99529.41
2023-01-11T08:36:14.594Z,99508.06
2023-01-11T08:38:42.763Z,99528.31
2023-01-11T08:41:11.782Z,99533.75
2023-01-11T08:43:40.039Z,99524.25
2023-01-11T08:46:09.978Z,99537.00
2023-01-11T08:48:38.209Z,99546.16
2023-01-11T08:51:06.378Z,99542.22
2023-01-11T08:53:34.400Z,99549.44
2023-01-11T08:56:02.499Z,99553.28
2023-01-11T08:58:30.542Z,99548.78
2023-01-11T09:00:59.387Z,99553.25
2023-01-11T09:03:28.818Z,99557.91
2023-01-11T09:05:57.596Z,99559.41
2023-01-11T09:08:25.657Z,99562.84
2023-01-11T09:10:53.668Z,99565.03
2023-01-11T09:13:21.597Z,99562.38
2023-01-11T09:15:49.664Z,99519.81
2023-01-11T09:18:18.854Z,99531.91
2023-01-11T09:20:48.116Z,99554.69
2023-01-11T09:23:16.101Z,99565.59
2023-01-11T09:25:44.070Z,99549.31
2023-01-11T09:28:12.052Z,99545.38
2023-01-11T09:30:40.039Z,99546.78
2023-01-11T09:33:08.093Z,99542.81
2023-01-11T09:35:38.554Z,99541.44
2023-01-11T09:38:07.786Z,99538.09
2023-01-11T09:40:46.355Z,99541.53
2023-01-11T09:43:16.834Z,99545.22
2023-01-11T09:45:46.904Z,99542.44
2023-01-11T09:48:26.962Z,99539.31
2023-01-11T09:50:55.007Z,99552.09
2023-01-11T09:53:31.599Z,99541.75
2023-01-11T09:56:02.513Z,99569.56
2023-01-11T09:58:43.094Z,99547.72
2023-01-11T10:01:18.781Z,99543.59
2023-01-11T10:04:28.584Z,99569.88
2023-01-11T10:07:15.563Z,99563.53
2023-01-11T10:18:28.493Z,99567.84
2023-01-11T10:19:19.105Z,99561.66
2023-01-11T10:21:49.456Z,99565.88
2023-01-11T10:24:26.138Z,99543.72
2023-01-11T10:27:02.209Z,99561.78
2023-01-11T10:29:49.890Z,99546.03
2023-01-11T10:32:53.285Z,99561.94
2023-01-11T10:35:45.551Z,99547.13
2023-01-11T10:38:38.575Z,99561.13
2023-01-11T10:41:20.162Z,99562.44
2023-01-11T10:44:05.950Z,99557.25
2023-01-11T10:46:39.705Z,99553.16
2023-01-11T10:49:26.672Z,99543.34
2023-01-11T10:52:00.123Z,99557.13
2023-01-11T10:54:35.607Z,99531.81
2023-01-11T10:57:14.117Z,99553.66
2023-01-11T10:59:58.596Z,99557.00
2023-01-11T11:02:44.895Z,99545.31
2023-01-11T11:05:24.571Z,99537.28
2023-01-11T11:07:59.024Z,99545.75
2023-01-11T11:10:36.000Z,99542.88
2023-01-11T11:13:11.770Z,99547.03
2023-01-11T11:15:48.131Z,99545.88
2023-01-11T11:18:16.163Z,99533.19
2023-01-11T11:20:46.285Z,99545.78
2023-01-11T11:23:18.157Z,99539.28
2023-01-11T11:25:49.852Z,99538.38
2023-01-11T11:28:29.840Z,99537.56
2023-01-11T11:31:01.191Z,99534.19
2023-01-11T11:33:35.137Z,99534.47
2023-01-11T11:36:05.365Z,99538.59
2023-01-11T11:38:36.768Z,99543.09
2023-01-11T11:41:10.196Z,99542.63
2023-01-11T11:43:39.554Z,99547.03
2023-01-11T11:46:22.896Z,99552.59
2023-01-11T11:49:11.897Z,99547.56
2023-01-11T11:51:40.423Z,99548.53
2023-01-11T11:54:17.647Z,99547.09
2023-01-11T11:56:45.665Z,99551.59
2023-01-11T11:59:17.170Z,99524.22
2023-01-11T12:01:49.850Z,99541.69
2023-01-11T12:04:22.065Z,99540.94
2023-01-11T12:07:06.043Z,99546.28
2023-01-11T12:09:35.970Z,99530.28
2023-01-11T12:12:05.581Z,99537.84
2023-01-11T12:14:35.353Z,99549.16
2023-01-11T12:17:23.120Z,99539.53
2023-01-11T12:19:51.067Z,99543.53
2023-01-11T12:22:20.816Z,99512.69
2023-01-11T12:24:49.944Z,99544.06
2023-01-11T12:27:33.681Z,99540.56
2023-01-11T12:30:14.433Z,99538.44
2023-01-11T12:33:10.591Z,99530.88
2023-01-11T12:35:48.777Z,99537.06
2023-01-11T12:38:24.649Z,99543.78
2023-01-11T12:41:08.752Z,99542.34
2023-01-11T12:43:56.321Z,99546.53
2023-01-11T12:46:38.508Z,99551.19
2023-01-11T12:49:20.850Z,99557.94
2023-01-11T12:52:04.949Z,99554.38
2023-01-11T12:54:53.790Z,99558.59
2023-01-11T12:57:30.119Z,99557.09
2023-01-11T13:00:46.852Z,99561.59
2023-01-11T13:03:35.416Z,99556.22
2023-01-11T13:06:09.870Z,99560.75
2023-01-11T13:08:53.224Z,99565.16
2023-01-11T13:11:37.614Z,99574.19
2023-01-11T13:14:25.647Z,99493.94
2023-01-11T13:17:01.517Z,99579.97
2023-01-11T13:19:37.591Z,99580.97
2023-01-11T13:22:15.149Z,99569.91
2023-01-11T13:24:47.041Z,99586.91
2023-01-11T13:27:17.804Z,99591.75
2023-01-11T13:29:48.404Z,99594.59
2023-01-11T13:32:20.976Z,99595.41
2023-01-11T13:34:53.477Z,99598.31
2023-01-11T13:37:29.423Z,99594.97
2023-01-11T13:40:05.955Z,99594.72
2023-01-11T13:42:39.180Z,99603.66
2023-01-11T13:45:17.587Z,99596.78
2023-01-11T13:47:49.860Z,99586.56
2023-01-11T13:50:24.778Z,99594.66
2023-01-11T13:53:03.995Z,99601.72
2023-01-11T13:55:41.809Z,99559.38
2023-01-11T13:58:16.556Z,99607.19
2023-01-11T14:00:50.821Z,99610.28
2023-01-11T14:03:28.406Z,99585.75
2023-01-11T14:06:10.599Z,99616.00
2023-01-11T14:09:00.451Z,99610.63
2023-01-11T14:11:40.043Z,99615.22
2023-01-11T14:14:32.993Z,99609.25
2023-01-11T14:17:28.708Z,99598.94
2023-01-11T14:20:07.306Z,99620.81
2023-01-11T14:22:42.634Z,99625.81
2023-01-11T14:25:21.952Z,99623.97
2023-01-11T14:28:24.543Z,99624.88
2023-01-11T14:31:17.804Z,99617.38
2023-01-11T14:34:11.895Z,99625.44
2023-01-11T14:37:05.499Z,99630.84
2023-01-11T14:39:57.703Z,99625.44
2023-01-11T14:42:55.443Z,99645.09
2023-01-11T14:45:32.979Z,99637.50
2023-01-11T14:48:23.295Z,99641.91
2023-01-11T14:51:33.171Z,99646.50
2023-01-11T14:54:05.666Z,99641.53
2023-01-11T14:56:36.938Z,99641.53
2023-01-11T14:59:08.372Z,99643.72
2023-01-11T15:02:23.712Z,99644.63
2023-01-11T15:05:12.972Z,99652.28
2023-01-11T15:07:43.853Z,99643.66
2023-01-11T15:10:41.998Z,99648.47
2023-01-11T15:13:16.008Z,99651.97
2023-01-11T15:16:02.903Z,99655.53
2023-01-11T15:18:31.501Z,99653.00
2023-01-11T15:21:04.740Z,99660.44
2023-01-11T15:23:36.855Z,99655.75
2023-01-11T15:26:08.027Z,99652.38
2023-01-11T15:28:45.354Z,99633.75
2023-01-11T15:31:39.035Z,99661.53
2023-01-11T15:34:22.893Z,99661.44
2023-01-11T15:37:13.029Z,99658.91
2023-01-11T15:39:46.608Z,99646.66
2023-01-11T15:42:37.066Z,99666.84
2023-01-11T15:46:00.333Z,99650.22
2023-01-11T15:48:45.297Z,99671.28
2023-01-11T15:51:38.454Z,99669.97
2023-01-11T15:54:31.592Z,99680.03
2023-01-11T15:57:31.489Z,99675.25
2023-01-11T16:00:41.424Z,99675.47
2023-01-11T16:03:42.360Z,99685.66
2023-01-11T16:06:18.879Z,99689.84
2023-01-11T16:08:58.147Z,99646.91
2023-01-11T16:11:37.670Z,99698.88
2023-01-11T16:14:30.912Z,99701.28
2023-01-11T16:16:59.559Z,99701.47
2023-01-11T16:19:32.673Z,99694.50
2023-01-11T16:22:05.597Z,99698.13
2023-01-11T16:24:38.889Z,99689.59
2023-01-11T16:27:09.297Z,99704.00
2023-01-11T16:29:39.225Z,99704.19
2023-01-11T16:32:09.341Z,99705.84
2023-01-11T16:34:43.305Z,99717.72
2023-01-11T16:37:24.022Z,99714.50
2023-01-11T16:39:56.903Z,99721.81
2023-01-11T16:42:27.106Z,99723.59
2023-01-11T16:44:59.937Z,99716.31
2023-01-11T16:47:27.909Z,99730.88
2023-01-11T16:50:22.228Z,99735.50
2023-01-11T16:52:53.331Z,99732.53
2023-01-11T16:55:30.269Z,99704.25
2023-01-11T16:58:01.453Z,99738.19
2023-01-11T17:00:35.777Z,99736.09
2023-01-11T17:03:17.623Z,99739.44
2023-01-11T17:05:57.693Z,99745.06
2023-01-11T17:08:28.087Z,99675.13
2023-01-11T17:10:58.628Z,99746.13
2023-01-11T17:13:54.626Z,99723.59
2023-01-11T17:16:25.467Z,99734.41
2023-01-11T17:18:54.537Z,99745.91
2023-01-11T17:21:26.007Z,99749.22
2023-01-11T17:23:59.254Z,99754.13
2023-01-11T17:26:30.221Z,99754.97
2023-01-11T17:29:00.857Z,99762.22
2023-01-11T17:31:32.108Z,99764.28
2023-01-11T17:34:05.460Z,99759.09
2023-01-11T17:36:35.222Z,99767.72
2023-01-11T17:39:04.714Z,99757.69
2023-01-11T17:41:50.309Z,99764.97
2023-01-11T17:44:38.000Z,99763.97
2023-01-11T17:47:09.185Z,99758.25
2023-01-11T17:49:39.157Z,99719.22
2023-01-11T17:52:21.478Z,99766.91
2023-01-11T17:55:01.624Z,99766.06
2023-01-11T17:57:29.864Z,99774.00
2023-01-11T18:00:18.580Z,99772.69
2023-01-11T18:02:47.732Z,99765.63
2023-01-11T18:05:17.848Z,99741.53
2023-01-11T18:07:50.297Z,99768.34
2023-01-11T18:10:21.225Z,99775.88
2023-01-11T18:12:50.933Z,99779.84
2023-01-11T18:15:21.917Z,99788.09
2023-01-11T18:17:53.230Z,99784.94
2023-01-11T18:20:42.753Z,99791.94
2023-01-11T18:23:23.097Z,99792.75
2023-01-11T18:25:51.400Z,99794.38
2023-01-11T18:28:38.070Z,99800.31
2023-01-11T18:31:06.303Z,99808.03
2023-01-11T18:33:35.345Z,99809.81
2023-01-11T18:36:05.148Z,99808.53
2023-01-11T18:38:36.478Z,99796.94
2023-01-11T18:41:21.996Z,99793.88
2023-01-11T18:43:50.142Z,99807.44
2023-01-11T18:46:18.295Z,99809.81
2023-01-11T18:48:46.377Z,99807.19
2023-01-11T18:51:17.785Z,99819.69
2023-01-11T18:53:47.243Z,99814.22
2023-01-11T18:56:16.432Z,99827.09
2023-01-11T18:58:44.599Z,99828.22
2023-01-11T19:01:12.787Z,99828.63
2023-01-11T19:03:45.988Z,99826.41
2023-01-11T19:06:14.339Z,99817.13
2023-01-11T19:08:42.702Z,99836.06
2023-01-11T19:11:13.902Z,99830.84
2023-01-11T19:13:42.104Z,99835.34
2023-01-11T19:16:10.671Z,99831.53
2023-01-11T19:18:38.790Z,99837.28
2023-01-11T19:21:09.253Z,99836.63
2023-01-11T19:23:37.479Z,99840.22
2023-01-11T19:26:05.936Z,99836.06
2023-01-11T19:28:35.386Z,99848.19
2023-01-11T19:31:07.860Z,99833.44
2023-01-11T19:33:36.070Z,99834.97
2023-01-11T19:36:07.034Z,99835.50
2023-01-11T19:38:35.187Z,99832.78
2023-01-11T19:41:06.187Z,99828.16
2023-01-11T19:43:35.772Z,99831.97
2023-01-11T19:46:04.273Z,99829.88
2023-01-11T19:48:33.230Z,99830.56
2023-01-11T19:51:05.539Z,99830.81
2023-01-11T19:53:33.902Z,99839.41
2023-01-11T19:56:02.414Z,99834.19
2023-01-11T19:58:30.517Z,99837.44
2023-01-11T20:01:00.139Z,99841.88
2023-01-11T20:03:30.215Z,99848.75
2023-01-11T20:06:07.634Z,99849.56
2023-01-11T20:08:38.433Z,99854.41
2023-01-11T20:11:07.356Z,99854.94
2023-01-11T20:13:35.521Z,99855.44
2023-01-11T20:16:08.042Z,99853.41
2023-01-11T20:18:35.951Z,99844.31
2023-01-11T20:21:04.038Z,99844.13
2023-01-11T20:23:32.249Z,99842.53
2023-01-11T20:26:00.542Z,99845.88
2023-01-11T20:28:29.161Z,99854.69
2023-01-11T20:31:00.684Z,99852.19
2023-01-11T20:33:31.285Z,99845.13
2023-01-11T20:35:59.221Z,99856.84
2023-01-11T20:38:27.219Z,99837.72
2023-01-11T20:40:55.238Z,99854.50
2023-01-11T20:43:23.292Z,99852.38
2023-01-11T20:45:56.463Z,99833.59
2023-01-11T20:48:24.422Z,99845.53
2023-01-11T20:50:53.712Z,99851.66
2023-01-11T20:53:21.631Z,99853.94
2023-01-11T20:55:49.598Z,99845.84
2023-01-11T20:58:17.639Z,99846.03
2023-01-11T21:00:48.130Z,99850.06
2023-01-11T21:03:16.748Z,99855.06
2023-01-11T21:05:44.667Z,99854.41
2023-01-11T21:08:14.018Z,99848.09
2023-01-11T21:10:42.050Z,99841.50
2023-01-11T21:13:10.043Z,99844.56
2023-01-11T21:15:39.020Z,99857.19
2023-01-11T21:18:07.521Z,99837.19
2023-01-11T21:20:35.948Z,99868.50
2023-01-11T21:23:04.010Z,99864.31
2023-01-11T21:25:34.997Z,99877.59
2023-01-11T21:28:03.987Z,99877.97
2023-01-11T21:30:32.101Z,99886.25
2023-01-11T21:33:00.108Z,99890.56
2023-01-11T21:35:28.273Z,99885.56
2023-01-11T21:37:56.275Z,99885.63
2023-01-11T21:40:24.212Z,99892.44
2023-01-11T21:42:53.460Z,99867.06
2023-01-11T21:45:21.384Z,99886.03
2023-01-11T21:47:49.317Z,99889.09
2023-01-11T21:50:17.872Z,99888.09
2023-01-11T21:52:45.875Z,99878.34
2023-01-11T21:55:14.118Z,99871.19
2023-01-11T21:57:42.090Z,99867.81
2023-01-11T22:00:14.640Z,99840.84
2023-01-11T22:02:42.588Z,99857.50
2023-01-11T22:05:11.032Z,99860.34
2023-01-11T22:07:40.941Z,99866.84
2023-01-11T22:10:09.868Z,99857.53
2023-01-11T22:12:37.775Z,99853.84
2023-01-11T22:15:06.264Z,99846.03
2023-01-11T22:17:35.823Z,99849.41
2023-01-11T22:20:03.873Z,99849.50
2023-01-11T22:22:32.133Z,99849.59
2023-01-11T22:25:00.205Z,99752.47
2023-01-11T22:27:28.126Z,99840.88
2023-01-11T22:29:56.096Z,99843.00
2023-01-11T22:32:24.141Z,99848.94
2023-01-11T22:34:53.485Z,99847.72
2023-01-11T22:37:21.481Z,99823.47
2023-01-11T22:39:49.719Z,99849.06
2023-01-11T22:42:17.618Z,99849.50
2023-01-11T22:44:45.627Z,99838.81
2023-01-11T22:47:13.555Z,99834.38
2023-01-11T22:49:41.475Z,99842.00
2023-01-11T22:52:10.825Z,99834.19
2023-01-11T22:54:38.797Z,99837.63
2023-01-11T22:57:06.729Z,99832.41
2023-01-11T22:59:34.660Z,99814.41
2023-01-11T23:02:02.616Z,99831.59
2023-01-11T23:04:30.470Z,99844.59
2023-01-11T23:06:58.432Z,99831.50
2023-01-11T23:09:28.216Z,99835.66
2023-01-11T23:12:13.473Z,99849.22
2023-01-11T23:14:41.409Z,99826.19
2023-01-11T23:17:09.326Z,99837.34
2023-01-11T23:19:39.797Z,99827.59
2023-01-11T23:22:08.677Z,99822.31
2023-01-11T23:24:39.041Z,99811.91
2023-01-11T23:27:07.158Z,99824.53
2023-01-11T23:29:35.607Z,99822.84
2023-01-11T23:32:03.789Z,99810.41
2023-01-11T23:34:31.913Z,99721.50
2023-01-11T23:36:59.880Z,99806.56
2023-01-11T23:39:28.010Z,99801.13
2023-01-11T23:42:15.019Z,99798.25
2023-01-11T23:44:42.999Z,99786.28
2023-01-11T23:47:29.859Z,99802.34
2023-01-11T23:50:00.356Z,99794.28
2023-01-11T23:52:30.370Z,99796.50
2023-01-11T23:54:58.735Z,99801.34
2023-01-11T23:57:28.346Z,99799.47
2023-01-11T23:59:56.613Z,99798.34
